createdAt,value
2023-03-30T00:05:52.348Z,6.60
2023-03-30T00:12:53.949Z,6.40
2023-03-30T00:16:01.683Z,6.30
2023-03-30T00:18:53.447Z,6.26
2023-03-30T00:21:35.532Z,6.26
2023-03-30T00:24:15.900Z,6.29
2023-03-30T00:27:06.614Z,6.23
2023-03-30T00:29:44.929Z,6.16
2023-03-30T00:32:30.952Z,6.10
2023-03-30T00:35:10.552Z,5.97
2023-03-30T00:37:50.107Z,5.92
2023-03-30T00:40:28.091Z,5.91
2023-03-30T00:43:25.547Z,5.89
2023-03-30T00:46:13.582Z,5.90
2023-03-30T00:48:55.386Z,5.94
2023-03-30T00:51:44.620Z,6.01
2023-03-30T00:54:23.748Z,6.04
2023-03-30T00:57:00.180Z,6.06
2023-03-30T00:59:55.863Z,6.05
2023-03-30T01:02:50.887Z,6.02
2023-03-30T01:05:56.568Z,5.97
2023-03-30T01:08:47.364Z,5.94
2023-03-30T01:11:45.230Z,5.93
2023-03-30T01:14:27.269Z,5.93
2023-03-30T01:17:40.736Z,5.97
2023-03-30T01:21:01.368Z,6.03
2023-03-30T01:24:26.877Z,6.09
2023-03-30T01:27:27.416Z,6.12
2023-03-30T01:30:39.392Z,6.13
2023-03-30T01:34:13.139Z,6.13
2023-03-30T01:37:08.438Z,6.13
2023-03-30T01:40:09.581Z,6.14
2023-03-30T01:43:44.120Z,6.18
2023-03-30T01:47:08.084Z,6.21
2023-03-30T01:54:02.632Z,6.21
2023-03-30T01:57:07.344Z,6.20
2023-03-30T02:00:29.024Z,6.23
2023-03-30T02:03:25.236Z,6.22
2023-03-30T02:06:17.844Z,6.25
2023-03-30T02:09:10.251Z,6.25
2023-03-30T02:12:07.882Z,6.30
2023-03-30T02:15:04.967Z,6.35
2023-03-30T02:17:48.683Z,6.39
2023-03-30T02:20:24.385Z,6.42
2023-03-30T02:22:57.783Z,6.42
2023-03-30T02:25:38.890Z,6.39
2023-03-30T02:28:16.346Z,6.35
2023-03-30T02:30:52.982Z,6.33
2023-03-30T02:34:09.729Z,6.32
2023-03-30T02:37:12.358Z,6.32
2023-03-30T02:40:55.046Z,6.31
2023-03-30T02:44:39.298Z,6.26
2023-03-30T02:47:45.960Z,6.21
2023-03-30T02:51:10.436Z,6.18
2023-03-30T02:54:46.014Z,6.18
2023-03-30T02:58:05.134Z,6.21
2023-03-30T03:01:28.507Z,6.22
2023-03-30T03:04:27.505Z,6.21
2023-03-30T03:07:34.642Z,6.19
2023-03-30T03:10:58.729Z,6.18
2023-03-30T03:14:32.934Z,6.13
2023-03-30T03:20:18.012Z,6.16
2023-03-30T03:23:15.223Z,6.15
2023-03-30T03:26:55.233Z,6.09
2023-03-30T03:30:30.858Z,6.01
2023-03-30T03:33:33.023Z,5.93
2023-03-30T03:37:12.005Z,5.86
2023-03-30T03:40:08.283Z,5.81
2023-03-30T03:42:49.513Z,5.78
2023-03-30T03:46:02.809Z,5.78
2023-03-30T03:48:50.566Z,5.78
2023-03-30T03:51:38.322Z,5.81
2023-03-30T03:54:21.150Z,5.83
2023-03-30T03:57:16.742Z,5.82
2023-03-30T04:00:23.686Z,5.82
2023-03-30T04:03:11.827Z,5.85
2023-03-30T04:05:47.853Z,5.87
2023-03-30T04:08:27.919Z,5.91
2023-03-30T04:11:23.022Z,5.93
2023-03-30T04:14:41.412Z,5.92
2023-03-30T04:18:07.459Z,5.92
2023-03-30T04:21:10.238Z,5.93
2023-03-30T04:24:23.696Z,5.96
2023-03-30T04:27:49.295Z,5.96
2023-03-30T04:31:06.341Z,5.96
2023-03-30T04:34:15.428Z,5.98
2023-03-30T04:37:33.638Z,5.98
2023-03-30T04:40:37.446Z,5.99
2023-03-30T04:43:38.004Z,6.02
2023-03-30T04:46:48.884Z,6.06
2023-03-30T04:50:10.690Z,6.13
2023-03-30T04:56:49.264Z,6.20
2023-03-30T04:59:57.598Z,6.22
2023-03-30T05:03:23.695Z,6.26
2023-03-30T05:06:33.359Z,6.27
2023-03-30T05:09:38.769Z,6.26
2023-03-30T05:12:45.633Z,6.24
2023-03-30T05:15:43.793Z,6.21
2023-03-30T05:18:53.372Z,6.24
2023-03-30T05:22:12.693Z,6.23
2023-03-30T05:25:40.038Z,6.21
2023-03-30T05:29:01.810Z,6.21
2023-03-30T05:32:10.443Z,6.20
2023-03-30T05:35:33.385Z,6.22
2023-03-30T05:38:40.926Z,6.27
2023-03-30T05:41:48.826Z,6.32
2023-03-30T05:44:48.640Z,6.39
2023-03-30T05:48:17.328Z,6.43
2023-03-30T05:51:32.957Z,6.50
2023-03-30T05:54:42.872Z,6.62
2023-03-30T05:57:49.655Z,6.75
2023-03-30T06:00:52.556Z,6.92
2023-03-30T06:03:53.342Z,7.04
2023-03-30T06:06:47.401Z,7.19
2023-03-30T06:09:38.362Z,7.29
2023-03-30T06:12:50.456Z,7.35
2023-03-30T06:16:27.368Z,7.45
2023-03-30T06:19:30.377Z,7.56
2023-03-30T06:22:23.394Z,7.70
2023-03-30T06:25:20.317Z,7.80
2023-03-30T06:28:27.522Z,7.87
2023-03-30T06:31:31.828Z,7.98
2023-03-30T06:35:09.111Z,8.16
2023-03-30T06:37:56.248Z,8.26
2023-03-30T06:40:47.858Z,8.40
2023-03-30T06:44:04.012Z,8.50
2023-03-30T06:46:51.620Z,8.60
2023-03-30T06:49:34.477Z,8.71
2023-03-30T06:52:36.360Z,8.75
2023-03-30T06:55:15.678Z,8.69
2023-03-30T06:57:46.680Z,8.65
2023-03-30T07:00:23.623Z,8.67
2023-03-30T07:03:24.842Z,8.72
2023-03-30T07:06:08.628Z,8.75
2023-03-30T07:08:47.458Z,8.80
2023-03-30T07:11:33.577Z,8.84
2023-03-30T07:14:08.200Z,8.84
2023-03-30T07:16:44.861Z,8.90
2023-03-30T07:19:21.684Z,9.02
2023-03-30T07:21:59.239Z,9.08
2023-03-30T07:24:34.877Z,9.16
2023-03-30T07:27:15.358Z,9.29
2023-03-30T07:29:48.999Z,9.37
2023-03-30T07:32:24.149Z,9.38
2023-03-30T07:35:12.816Z,9.36
2023-03-30T07:37:50.729Z,9.33
2023-03-30T07:40:29.383Z,9.37
2023-03-30T07:43:06.964Z,9.31
2023-03-30T07:45:55.230Z,9.15
2023-03-30T07:48:38.135Z,8.99
2023-03-30T07:51:50.069Z,8.93
2023-03-30T07:55:22.562Z,8.86
2023-03-30T07:58:28.003Z,8.76
2023-03-30T08:01:04.236Z,8.74
2023-03-30T08:03:56.160Z,8.73
2023-03-30T08:06:38.265Z,8.77
2023-03-30T08:09:22.192Z,8.79
2023-03-30T08:11:59.876Z,8.80
2023-03-30T08:14:46.920Z,8.82
2023-03-30T08:17:29.343Z,8.78
2023-03-30T08:20:08.707Z,8.73
2023-03-30T08:22:45.344Z,8.71
2023-03-30T08:25:24.702Z,8.68
2023-03-30T08:28:03.517Z,8.74
2023-03-30T08:30:36.207Z,8.85
2023-03-30T08:33:16.830Z,9.01
2023-03-30T08:35:55.857Z,9.18
2023-03-30T08:38:33.122Z,9.43
2023-03-30T08:41:32.712Z,9.62
2023-03-30T08:44:28.826Z,9.72
2023-03-30T08:47:04.295Z,9.68
2023-03-30T08:49:56.617Z,9.67
2023-03-30T08:52:37.191Z,9.63
2023-03-30T08:55:26.133Z,9.58
2023-03-30T08:58:17.569Z,9.68
2023-03-30T09:01:37.486Z,9.95
2023-03-30T09:04:31.511Z,10.36
2023-03-30T09:07:18.236Z,10.88
2023-03-30T09:09:57.771Z,11.51
2023-03-30T09:13:00.438Z,12.08
2023-03-30T09:15:46.504Z,12.40
2023-03-30T09:18:25.746Z,12.46
2023-03-30T09:21:11.279Z,12.54
2023-03-30T09:23:47.427Z,12.56
2023-03-30T09:27:33.498Z,12.58
2023-03-30T09:30:30.161Z,12.70
2023-03-30T09:33:20.310Z,13.07
2023-03-30T09:36:11.955Z,13.56
2023-03-30T09:38:46.039Z,14.17
2023-03-30T09:42:14.457Z,14.53
2023-03-30T09:45:17.162Z,14.62
2023-03-30T09:47:58.334Z,14.85
2023-03-30T09:50:46.969Z,15.08
2023-03-30T09:53:35.505Z,15.45
2023-03-30T09:56:20.734Z,15.88
2023-03-30T09:58:52.877Z,16.12
2023-03-30T10:01:37.208Z,16.31
2023-03-30T10:04:15.538Z,16.53
2023-03-30T10:06:55.572Z,16.73
2023-03-30T10:09:27.673Z,16.53
2023-03-30T10:12:13.129Z,16.50
2023-03-30T10:15:05.626Z,16.71
2023-03-30T10:17:44.518Z,16.75
2023-03-30T10:20:30.237Z,16.80
2023-03-30T10:23:20.507Z,16.67
2023-03-30T10:26:03.767Z,16.33
2023-03-30T10:28:37.033Z,16.00
2023-03-30T10:31:18.970Z,15.90
2023-03-30T10:34:02.202Z,15.83
2023-03-30T10:36:50.810Z,15.74
2023-03-30T10:39:39.883Z,15.68
2023-03-30T10:42:26.684Z,15.46
2023-03-30T10:45:10.008Z,15.29
2023-03-30T10:47:49.024Z,15.29
2023-03-30T10:51:07.800Z,15.38
2023-03-30T10:54:48.521Z,15.44
2023-03-30T10:57:27.684Z,15.30
2023-03-30T11:00:25.820Z,15.32
2023-03-30T11:03:32.910Z,15.39
2023-03-30T11:06:23.461Z,15.51
2023-03-30T11:09:02.032Z,15.54
2023-03-30T11:11:43.865Z,15.54
2023-03-30T11:14:37.900Z,15.57
2023-03-30T11:18:00.666Z,15.57
2023-03-30T11:20:53.529Z,15.54
2023-03-30T11:23:52.449Z,15.45
2023-03-30T11:26:50.026Z,15.41
2023-03-30T11:29:39.118Z,15.36
2023-03-30T11:32:48.753Z,15.31
2023-03-30T11:35:48.326Z,15.21
2023-03-30T11:38:48.578Z,15.11
2023-03-30T11:41:38.209Z,15.03
2023-03-30T11:44:13.296Z,15.00
2023-03-30T11:47:37.798Z,14.87
2023-03-30T11:51:18.856Z,14.69
2023-03-30T11:54:25.313Z,14.56
2023-03-30T11:57:38.128Z,14.54
2023-03-30T12:00:52.078Z,14.54
2023-03-30T12:03:47.910Z,14.54
2023-03-30T12:06:52.968Z,14.55
2023-03-30T12:10:08.646Z,14.44
2023-03-30T12:12:51.360Z,14.36
2023-03-30T12:16:04.115Z,14.33
2023-03-30T12:19:39.827Z,14.26
2023-03-30T12:26:04.986Z,14.09
2023-03-30T12:32:08.579Z,13.93
2023-03-30T12:37:57.847Z,13.95
2023-03-30T12:40:52.764Z,13.93
2023-03-30T12:44:04.140Z,13.90
2023-03-30T12:47:12.206Z,13.82
2023-03-30T12:50:52.328Z,13.78
2023-03-30T12:53:55.105Z,13.77
2023-03-30T13:00:43.488Z,13.85
2023-03-30T13:03:45.403Z,13.93
2023-03-30T13:06:51.053Z,14.05
2023-03-30T13:10:23.204Z,14.14
2023-03-30T13:12:53.668Z,14.28
2023-03-30T13:15:58.043Z,14.45
2023-03-30T13:18:57.420Z,14.59
2023-03-30T13:22:01.273Z,14.68
2023-03-30T13:25:01.843Z,14.74
2023-03-30T13:27:44.517Z,14.73
2023-03-30T13:30:38.333Z,14.70
2023-03-30T13:33:37.516Z,14.69
2023-03-30T13:36:28.423Z,14.62
2023-03-30T13:39:55.695Z,14.61
2023-03-30T13:42:33.707Z,14.65
2023-03-30T13:45:43.177Z,14.64
2023-03-30T13:48:45.121Z,14.70
2023-03-30T13:51:32.202Z,14.80
2023-03-30T13:54:41.507Z,14.90
2023-03-30T13:57:48.632Z,15.02
2023-03-30T14:01:00.541Z,15.14
2023-03-30T14:03:48.158Z,15.26
2023-03-30T14:06:27.566Z,15.36
2023-03-30T14:09:35.793Z,15.42
2023-03-30T14:12:40.394Z,15.50
2023-03-30T14:18:14.876Z,15.65
2023-03-30T14:21:08.958Z,15.66
2023-03-30T14:24:16.375Z,15.71
2023-03-30T14:30:46.573Z,15.80
2023-03-30T14:33:34.591Z,15.81
2023-03-30T14:36:28.250Z,15.82
2023-03-30T14:39:36.229Z,15.86
2023-03-30T14:42:39.753Z,15.87
2023-03-30T14:46:05.906Z,15.86
2023-03-30T14:48:55.980Z,15.80
2023-03-30T14:51:53.586Z,15.76
2023-03-30T14:58:12.733Z,15.72
2023-03-30T15:01:11.236Z,15.68
2023-03-30T15:04:21.921Z,15.61
2023-03-30T15:07:19.418Z,15.59
2023-03-30T15:11:14.579Z,15.56
2023-03-30T15:14:23.660Z,15.54
2023-03-30T15:17:07.865Z,15.55
2023-03-30T15:19:47.431Z,15.54
2023-03-30T15:22:56.758Z,15.51
2023-03-30T15:25:46.542Z,15.48
2023-03-30T15:29:11.257Z,15.43
2023-03-30T15:31:46.781Z,15.36
2023-03-30T15:34:33.726Z,15.33
2023-03-30T15:37:36.251Z,15.28
2023-03-30T15:40:50.124Z,15.20
2023-03-30T15:43:39.478Z,15.11
2023-03-30T15:46:34.557Z,15.09
2023-03-30T15:49:09.210Z,15.11
2023-03-30T15:52:13.600Z,15.09
2023-03-30T15:55:02.874Z,15.07
2023-03-30T15:57:55.325Z,15.05
2023-03-30T16:01:04.137Z,15.04
2023-03-30T16:08:07.318Z,14.92
2023-03-30T16:11:13.527Z,14.88
2023-03-30T16:14:17.524Z,14.84
2023-03-30T16:20:46.947Z,14.81
2023-03-30T16:27:48.151Z,14.73
2023-03-30T16:31:06.579Z,14.58
2023-03-30T16:34:23.501Z,14.45
2023-03-30T16:37:30.654Z,14.35
2023-03-30T16:40:55.640Z,14.32
2023-03-30T16:44:18.479Z,14.29
2023-03-30T16:47:43.498Z,14.27
2023-03-30T16:50:59.952Z,14.24
2023-03-30T16:54:31.972Z,14.20
2023-03-30T16:58:02.724Z,14.16
2023-03-30T17:03:59.276Z,14.04
2023-03-30T17:07:01.652Z,14.00
2023-03-30T17:10:07.427Z,13.93
2023-03-30T17:16:31.333Z,13.86
2023-03-30T17:19:32.953Z,13.85
2023-03-30T17:22:24.332Z,13.85
2023-03-30T17:25:36.306Z,13.83
2023-03-30T17:28:43.157Z,13.81
2023-03-30T17:31:29.921Z,13.79
2023-03-30T17:34:07.519Z,13.79
2023-03-30T17:36:53.024Z,13.80
2023-03-30T17:39:42.900Z,13.75
2023-03-30T17:42:27.695Z,13.72
2023-03-30T17:45:03.893Z,13.71
2023-03-30T17:48:07.702Z,13.66
2023-03-30T17:51:04.150Z,13.60
2023-03-30T17:53:47.554Z,13.60
2023-03-30T17:56:23.434Z,13.57
2023-03-30T17:58:59.077Z,13.55
2023-03-30T18:01:56.783Z,13.52
2023-03-30T18:04:49.578Z,13.49
2023-03-30T18:08:10.562Z,13.45
2023-03-30T18:14:35.220Z,13.39
2023-03-30T18:22:15.785Z,13.26
2023-03-30T18:25:32.109Z,13.26
2023-03-30T18:28:37.025Z,13.24
2023-03-30T18:31:44.489Z,13.24
2023-03-30T18:34:48.692Z,13.26
2023-03-30T18:37:36.993Z,13.26
2023-03-30T18:40:49.563Z,13.28
2023-03-30T18:43:43.268Z,13.29
2023-03-30T18:46:36.083Z,13.28
2023-03-30T18:49:54.452Z,13.25
2023-03-30T19:07:40.432Z,13.01
2023-03-30T19:12:31.930Z,12.96
2023-03-30T19:26:58.489Z,12.93
2023-03-30T19:30:04.817Z,12.96
2023-03-30T19:32:41.092Z,12.99
2023-03-30T19:35:28.629Z,13.02
2023-03-30T19:38:08.461Z,13.05
2023-03-30T19:40:42.873Z,13.05
2023-03-30T19:43:37.892Z,13.05
2023-03-30T19:46:21.420Z,12.99
2023-03-30T19:49:13.101Z,12.93
2023-03-30T19:51:52.763Z,12.89
2023-03-30T19:54:38.669Z,12.86
2023-03-30T19:57:24.898Z,12.84
2023-03-30T20:00:39.741Z,12.76
2023-03-30T20:03:28.720Z,12.71
2023-03-30T20:06:17.176Z,12.64
2023-03-30T20:08:50.315Z,12.58
2023-03-30T20:11:38.461Z,12.54
2023-03-30T20:14:20.609Z,12.57
2023-03-30T20:17:17.225Z,12.62
2023-03-30T20:20:27.340Z,12.56
2023-03-30T20:23:31.332Z,12.50
2023-03-30T20:26:29.739Z,12.47
2023-03-30T20:29:45.626Z,12.41
2023-03-30T20:32:28.071Z,12.39
2023-03-30T20:35:23.993Z,12.41
2023-03-30T20:38:40.517Z,12.38
2023-03-30T20:41:23.762Z,12.29
2023-03-30T20:44:10.059Z,12.24
2023-03-30T20:47:27.085Z,12.23
2023-03-30T20:50:30.104Z,12.16
2023-03-30T20:53:17.708Z,12.10
2023-03-30T20:56:01.013Z,12.08
2023-03-30T20:58:38.912Z,12.03
2023-03-30T21:01:28.758Z,12.01
2023-03-30T21:04:13.771Z,11.98
2023-03-30T21:06:57.350Z,11.95
2023-03-30T21:09:44.537Z,11.92
2023-03-30T21:12:27.807Z,11.90
2023-03-30T21:15:17.715Z,11.85
2023-03-30T21:17:55.394Z,11.82
2023-03-30T21:21:21.654Z,11.77
2023-03-30T21:24:00.365Z,11.73
2023-03-30T21:26:37.908Z,11.68
2023-03-30T21:29:13.171Z,11.64
2023-03-30T21:31:49.660Z,11.62
2023-03-30T21:34:30.393Z,11.59
2023-03-30T21:37:16.300Z,11.56
2023-03-30T21:39:58.319Z,11.54
2023-03-30T21:42:34.708Z,11.51
2023-03-30T21:45:19.475Z,11.49
2023-03-30T21:48:02.637Z,11.48
2023-03-30T21:50:45.868Z,11.45
2023-03-30T21:53:35.974Z,11.41
2023-03-30T21:56:18.727Z,11.38
2023-03-30T21:59:04.585Z,11.34
2023-03-30T22:01:49.814Z,11.31
2023-03-30T22:04:34.316Z,11.25
2023-03-30T22:07:21.639Z,11.23
2023-03-30T22:10:07.551Z,11.20
2023-03-30T22:12:43.060Z,11.18
2023-03-30T22:15:47.722Z,11.14
2023-03-30T22:18:20.211Z,11.03
2023-03-30T22:21:12.481Z,10.94
2023-03-30T22:23:49.746Z,10.89
2023-03-30T22:26:32.639Z,10.83
2023-03-30T22:29:09.580Z,10.79
2023-03-30T22:31:45.336Z,10.75
2023-03-30T22:34:27.572Z,10.72
2023-03-30T22:37:02.873Z,10.67
2023-03-30T22:39:37.947Z,10.61
2023-03-30T22:42:16.945Z,10.54
2023-03-30T22:44:59.209Z,10.51
2023-03-30T22:47:53.120Z,10.49
2023-03-30T22:50:33.030Z,10.47
2023-03-30T22:53:16.312Z,10.44
2023-03-30T22:56:03.369Z,10.43
2023-03-30T22:58:42.755Z,10.40
2023-03-30T23:01:40.681Z,10.40
2023-03-30T23:04:20.174Z,10.38
2023-03-30T23:07:02.691Z,10.39
2023-03-30T23:09:39.066Z,10.40
2023-03-30T23:12:44.076Z,10.39
2023-03-30T23:15:20.761Z,10.36
2023-03-30T23:17:58.811Z,10.28
2023-03-30T23:20:30.322Z,10.28
2023-03-30T23:23:13.969Z,10.29
2023-03-30T23:25:52.966Z,10.26
2023-03-30T23:28:52.427Z,10.15
2023-03-30T23:31:40.901Z,10.13
2023-03-30T23:34:35.498Z,10.11
2023-03-30T23:37:19.039Z,10.12
2023-03-30T23:40:00.629Z,10.14
2023-03-30T23:42:44.536Z,10.05
2023-03-30T23:45:24.614Z,10.05
2023-03-30T23:48:13.636Z,10.06
2023-03-30T23:51:10.201Z,10.07
2023-03-30T23:53:55.130Z,10.09
2023-03-30T23:56:38.907Z,10.13
2023-03-30T23:59:16.848Z,10.18
